Pacayas, Costa Rica

3:44 AM CST on September 01, 2015 (GMT -0600)
Villas San Marino #62 | | Change Station
CLOSE
Current Station
Personal Weather Station
Location: Tres Rios, CARTAGO
Elevation: 4131 ft
Nearby Weather Stations

Elev 4131 ft 9.90 °N, 84.01 °W | Updated 14 minutes ago

Partly Cloudy
Partly Cloudy
68.5 °F
Feels Like 68.5 °F
N
3.8
Wind Variable Wind from SE
Gusts 7.6 mph

Today
High -- | Low -- °F
--% Chance of Precip.
Yesterday
High -- | Low -- °F
Precip. -- in
5:27 AM 5:45 PM
Waning Gibbous, 90% visible
Pressure 30.01 in
Visibility 6.2 miles
Clouds Few 3000 ft
Dew Point 62 °F
Humidity 80%
Rainfall 0.00 in
Snow Depth Not available.
UV out of 12
Pollen Not available.
Air Quality Not available.
Flu Activity Not available.
METAR MROC 010900Z 10010KT 9999 FEW030 22/18 A3001 NOSIG
Pressure 30.01 in
Visibility 6.2 miles
Clouds Few 3000 ft
Dew Point 62 °F
Humidity 80%
Rainfall 0.00 in
Snow Depth Not available.
UV out of 12
Pollen Not available.
Air Quality Not available.
Flu Activity Not available.
METAR MROC 010900Z 10010KT 9999 FEW030 22/18 A3001 NOSIG

10-Day Weather Forecast

×

Almanac

Astronomy

Sep. 01, 2015 Rise Set
Actual Time
Civil Twilight
Nautical Twilight
Astronomical Twilight
Moon
Length of Visible Light
Length of Day
Tomorrow will be .
, % of the Moon is Illuminated

Today's Extremes

Country Highs Country Lows

Community

WunderPhotos

Upload Photos

1,851,499 photos uploaded!

WunderBlogs® & News

Nearby

Air Quality

  Air Quality AQ Index Pollutant
Not available.

Snow Depth

Station Depth Elevation

Earthquake Activity

City Distance Mag. Time & Date
Minimum magnitude displayed is 2.5.

Coastal Water Temperatures

Place Temperature

Stations

Nearby Weather Stations

Station Location Temp. Windchill Dew Point Humidity Wind Precip. Elev Updated Type